Aérodrome :
LOGIN :

S'inscrire | Disclaimer

   EN    FR    IT 

 










Légende :    VFR   VFR Marginal   IFR   IFR Intensif   IFR Très Intensif
Visi : 
Plafond : 
>= 8 km
>= 3000ft
5 à 8 km
1000 à 3000 ft
1500m à 5 km
500 à 1000 ft
800 à 1500m
200 à 500 ft
< 800m
< 200 ft
Symboles :   Orages  Brouillard  Fortes neiges  Fortes précipitations  Vent > 20 kt
SIGMETs :   Divers  Orages  Givrage  Turbulence  Onde Orograph.  Cendres Volcan.






- Altitude de l'aérodrome : 42 ft
- Code IATA : KGD


UMKK - Khrabrava - Kaliningrad

DERNIER METAR :
  • 282330Z 29002MPS 260V320 CAVOK 16/15 Q1016 R24/CLRD95 NOSIG RMK QFE760/1014

METARs EXPIRÉS :
  • 282300Z 29005MPS CAVOK 16/15 Q1016 R24/CLRD95 NOSIG RMK QFE761/1014
  • 282230Z 27004MPS CAVOK 17/14 Q1016 R24/CLRD95 NOSIG RMK QFE760/1014
  • 282200Z 27005MPS CAVOK 18/14 Q1015 R24/CLRD95 NOSIG RMK QFE760/1014
  • 282130Z 28004MPS CAVOK 18/14 Q1015 R24/CLRD95 NOSIG RMK QFE760/1014
  • 282100Z 18002MPS 140V220 CAVOK 20/11 Q1015 R24/CLRD95 NOSIG RMK QFE760/1013
  • 282030Z 16002MPS 100V220 CAVOK 20/11 Q1014 R24/CLRD95 NOSIG RMK QFE759/1013
  • 282000Z 14003MPS CAVOK 19/13 Q1014 R24/95D NOSIG RMK QFE759/1013
  • 281930Z 12003MPS CAVOK 20/13 Q1014 R24/95D NOSIG RMK QFE759/1013
  • 281900Z 13003MPS CAVOK 20/13 Q1014 R24/95D NOSIG RMK QFE759/1013

TAF TAF UMKK
Valide du 29 à 00h jusqu'au 30 à 00h UTC


282254Z 2900/2924 30004G11MPS 6000 FEW006 BKN016CB
BECMG 2907/2910 36003G10MPS
TEMPO 2910/2924 -TSRA FEW004 BKN011CB
BECMG 2919/2922 VRB01MPS



MET'MAP, la Météo Aéronautique d'un coup d'oeil ! - Copyright ORBIFLY Décembre 2007 - Disclaimer

ORBIFLY MET'MAP TEAM :

Programmation & Développement : Alexandra Zaïnal
Sur une idée originale de : Baudouin d'Aumeries
Soutien technique & logistique : Manuel Goepfert
Assistance : Marc-Olivier Méhu




SOURCES & CREDITS :

   NOAA